createdAt,value
2023-03-02T00:01:39.645Z,67.50
2023-03-02T00:04:13.082Z,58.10
2023-03-02T00:06:40.899Z,53.80
2023-03-02T00:09:08.622Z,61.50
2023-03-02T00:11:38.867Z,56.70
2023-03-02T00:14:07.361Z,62.40
2023-03-02T00:16:35.454Z,55.90
2023-03-02T00:19:03.322Z,56.10
2023-03-02T00:21:31.680Z,59.30
2023-03-02T00:23:59.455Z,59.60
2023-03-02T00:26:27.255Z,64.70
2023-03-02T00:28:55.541Z,66.30
2023-03-02T00:31:23.345Z,61.80
2023-03-02T00:33:54.309Z,61.40
2023-03-02T00:36:23.979Z,58.80
2023-03-02T00:38:52.488Z,58.30
2023-03-02T00:41:23.936Z,63.20
2023-03-02T00:43:51.744Z,65.00
2023-03-02T00:46:22.434Z,59.30
2023-03-02T00:48:51.242Z,61.60
2023-03-02T00:51:19.339Z,59.90
2023-03-02T00:53:47.353Z,48.50
2023-03-02T00:56:15.084Z,54.90
2023-03-02T00:58:45.756Z,48.10
2023-03-02T01:01:13.951Z,44.50
2023-03-02T01:03:47.155Z,48.50
2023-03-02T01:06:18.781Z,49.20
2023-03-02T01:08:46.791Z,61.30
2023-03-02T01:11:21.265Z,72.30
2023-03-02T01:13:50.184Z,67.10
2023-03-02T01:16:18.597Z,68.80
2023-03-02T01:18:46.471Z,55.30
2023-03-02T01:21:16.003Z,130.90
2023-03-02T01:23:43.911Z,71.50
2023-03-02T01:26:11.733Z,98.20
2023-03-02T01:28:39.501Z,63.20
2023-03-02T01:31:07.298Z,178.90
2023-03-02T01:33:35.389Z,62.20
2023-03-02T01:36:03.507Z,56.10
2023-03-02T01:38:31.356Z,65.20
2023-03-02T01:40:59.167Z,51.80
2023-03-02T01:43:29.148Z,58.80
2023-03-02T01:46:01.735Z,51.30
2023-03-02T01:49:01.029Z,45.40
2023-03-02T01:51:45.948Z,49.00
2023-03-02T01:54:22.770Z,29.70
2023-03-02T01:56:58.161Z,30.60
2023-03-02T01:59:28.263Z,35.60
2023-03-02T02:02:00.613Z,24.50
2023-03-02T02:04:30.942Z,28.60
2023-03-02T02:07:03.363Z,27.10
2023-03-02T02:09:35.302Z,29.90
2023-03-02T02:12:05.843Z,33.70
2023-03-02T02:14:34.942Z,36.20
2023-03-02T02:17:02.780Z,39.60
2023-03-02T02:19:51.494Z,33.30
2023-03-02T02:22:44.915Z,23.90
2023-03-02T02:25:32.379Z,19.60
2023-03-02T02:28:03.139Z,26.40
2023-03-02T02:30:30.877Z,24.80
2023-03-02T02:33:00.627Z,22.10
2023-03-02T02:35:30.955Z,14.70
2023-03-02T02:38:04.586Z,16.50
2023-03-02T02:40:51.568Z,28.80
2023-03-02T02:43:21.991Z,19.40
2023-03-02T02:45:54.192Z,13.90
2023-03-02T02:48:24.617Z,14.20
2023-03-02T02:51:00.503Z,15.10
2023-03-02T02:53:58.902Z,11.50
2023-03-02T02:56:33.121Z,13.10
2023-03-02T02:59:06.258Z,22.40
2023-03-02T03:01:34.905Z,52.00
2023-03-02T03:04:06.023Z,16.80
2023-03-02T03:06:42.225Z,36.60
2023-03-02T03:09:11.254Z,27.20
2023-03-02T03:11:51.646Z,20.30
2023-03-02T03:14:24.607Z,17.90
2023-03-02T03:19:28.913Z,27.20
2023-03-02T03:22:00.949Z,35.30
2023-03-02T03:24:34.256Z,42.80
2023-03-02T03:27:05.281Z,24.80
2023-03-02T03:29:35.922Z,32.40
2023-03-02T03:32:06.837Z,33.70
2023-03-02T03:34:40.891Z,25.10
2023-03-02T03:37:18.517Z,27.00
2023-03-02T03:39:47.435Z,27.50
2023-03-02T03:42:15.864Z,20.80
2023-03-02T03:44:43.810Z,32.10
2023-03-02T03:47:11.606Z,32.30
2023-03-02T03:49:39.568Z,30.20
2023-03-02T03:52:07.640Z,32.50
2023-03-02T03:54:35.598Z,29.20
2023-03-02T03:57:03.450Z,21.20
2023-03-02T03:59:31.188Z,30.70
2023-03-02T04:02:02.940Z,25.40
2023-03-02T04:04:37.199Z,110.80
2023-03-02T04:07:09.648Z,16.60
2023-03-02T04:09:39.169Z,31.50
2023-03-02T04:12:10.013Z,50.90
2023-03-02T04:14:39.648Z,16.50
2023-03-02T04:17:08.091Z,23.20
2023-03-02T04:19:39.325Z,22.80
2023-03-02T04:22:07.395Z,31.20
2023-03-02T04:24:35.126Z,23.80
2023-03-02T04:27:04.668Z,34.60
2023-03-02T04:29:33.576Z,34.80
2023-03-02T04:32:03.653Z,31.40
2023-03-02T04:34:33.691Z,57.30
2023-03-02T04:37:01.978Z,25.00
2023-03-02T04:39:29.743Z,28.20
2023-03-02T04:41:57.534Z,34.50
2023-03-02T04:44:25.325Z,31.70
2023-03-02T04:46:53.290Z,20.00
2023-03-02T04:49:21.501Z,35.00
2023-03-02T04:51:50.348Z,19.80
2023-03-02T04:54:24.249Z,25.90
2023-03-02T04:56:53.363Z,23.50
2023-03-02T04:59:25.918Z,18.40
2023-03-02T05:01:56.338Z,17.90
2023-03-02T05:04:24.314Z,20.70
2023-03-02T05:06:52.173Z,16.20
2023-03-02T05:09:21.150Z,15.30
2023-03-02T05:11:48.891Z,11.90
2023-03-02T05:14:16.598Z,9.60
2023-03-02T05:16:44.341Z,12.80
2023-03-02T05:19:13.117Z,12.60
2023-03-02T05:21:41.376Z,12.20
2023-03-02T05:24:10.140Z,40.50
2023-03-02T05:26:38.471Z,33.40
2023-03-02T05:29:06.565Z,19.90
2023-03-02T05:31:41.053Z,16.00
2023-03-02T05:34:11.619Z,12.00
2023-03-02T05:36:39.826Z,10.80
2023-03-02T05:39:08.949Z,31.40
2023-03-02T05:41:37.420Z,31.40
2023-03-02T05:44:09.280Z,30.70
2023-03-02T05:46:37.141Z,23.00
2023-03-02T05:49:04.981Z,14.90
2023-03-02T05:51:32.731Z,25.50
2023-03-02T05:54:00.464Z,32.80
2023-03-02T05:56:28.241Z,26.50
2023-03-02T05:58:56.017Z,21.20
2023-03-02T06:01:25.480Z,24.10
2023-03-02T06:03:53.178Z,18.20
2023-03-02T06:06:20.888Z,18.60
2023-03-02T06:08:48.582Z,24.50
2023-03-02T06:11:16.404Z,27.50
2023-03-02T06:13:44.608Z,15.10
2023-03-02T06:16:12.689Z,25.40
2023-03-02T06:18:41.694Z,16.50
2023-03-02T06:21:09.851Z,22.40
2023-03-02T06:23:42.772Z,39.00
2023-03-02T06:26:13.068Z,11.60
2023-03-02T06:28:56.579Z,19.10
2023-03-02T06:31:24.457Z,24.10
2023-03-02T06:33:52.208Z,22.90
2023-03-02T06:36:20.092Z,13.10
2023-03-02T06:38:48.099Z,11.90
2023-03-02T06:41:16.973Z,32.80
2023-03-02T06:43:44.995Z,14.40
2023-03-02T06:46:13.132Z,10.20
2023-03-02T06:48:41.063Z,18.40
2023-03-02T06:51:08.888Z,18.20
2023-03-02T06:53:36.659Z,34.70
2023-03-02T06:56:04.829Z,25.00
2023-03-02T06:58:32.581Z,25.80
2023-03-02T07:01:00.525Z,38.30
2023-03-02T07:03:28.411Z,38.50
2023-03-02T07:05:56.195Z,30.00
2023-03-02T07:08:24.041Z,27.80
2023-03-02T07:10:51.871Z,36.10
2023-03-02T07:13:20.072Z,34.50
2023-03-02T07:15:47.844Z,52.10
2023-03-02T07:18:15.623Z,103.30
2023-03-02T07:20:43.337Z,130.10
2023-03-02T07:23:11.107Z,270.50
2023-03-02T07:25:39.367Z,139.50
2023-03-02T07:28:07.254Z,146.00
2023-03-02T07:30:35.054Z,52.10
2023-03-02T07:33:02.864Z,44.10
2023-03-02T07:35:30.930Z,44.00
2023-03-02T07:37:58.984Z,29.10
2023-03-02T07:40:26.814Z,233.10
2023-03-02T07:42:54.654Z,46.70
2023-03-02T07:45:24.889Z,26.60
2023-03-02T07:47:52.692Z,25.40
2023-03-02T07:50:20.376Z,17.70
2023-03-02T07:52:48.150Z,22.70
2023-03-02T07:55:16.031Z,18.90
2023-03-02T07:57:43.751Z,19.00
2023-03-02T08:00:12.050Z,16.90
2023-03-02T08:02:41.678Z,20.40
2023-03-02T08:05:11.234Z,11.10
2023-03-02T08:07:40.511Z,21.40
2023-03-02T08:10:09.077Z,20.10
2023-03-02T08:12:36.776Z,24.10
2023-03-02T08:15:05.327Z,21.50
2023-03-02T08:17:33.136Z,20.50
2023-03-02T08:20:01.220Z,33.40
2023-03-02T08:22:28.912Z,21.60
2023-03-02T08:24:56.997Z,20.20
2023-03-02T08:27:24.734Z,19.30
2023-03-02T08:29:54.056Z,15.80
2023-03-02T08:32:21.830Z,18.50
2023-03-02T08:34:51.656Z,20.50
2023-03-02T08:37:19.767Z,17.00
2023-03-02T08:39:48.405Z,19.90
2023-03-02T08:42:16.212Z,20.30
2023-03-02T08:44:44.478Z,22.80
2023-03-02T08:47:12.255Z,18.00
2023-03-02T08:49:40.050Z,21.90
2023-03-02T08:52:08.036Z,25.40
2023-03-02T08:54:36.802Z,19.80
2023-03-02T08:57:04.527Z,16.10
2023-03-02T08:59:32.318Z,16.70
2023-03-02T09:02:00.363Z,29.30
2023-03-02T09:04:28.761Z,41.80
2023-03-02T09:06:56.844Z,34.00
2023-03-02T09:09:24.896Z,23.40
2023-03-02T09:11:52.986Z,11.50
2023-03-02T09:14:21.476Z,13.10
2023-03-02T09:16:49.359Z,17.40
2023-03-02T09:19:17.196Z,14.80
2023-03-02T09:21:44.931Z,14.30
2023-03-02T09:24:12.911Z,16.10
2023-03-02T09:26:41.176Z,10.00
2023-03-02T09:29:09.724Z,10.30
2023-03-02T09:31:38.727Z,19.30
2023-03-02T09:34:06.775Z,19.90
2023-03-02T09:36:35.043Z,16.40
2023-03-02T09:39:08.544Z,10.60
2023-03-02T09:42:08.182Z,15.90
2023-03-02T09:44:57.819Z,20.70
2023-03-02T09:47:59.430Z,20.60
2023-03-02T09:50:34.593Z,14.60
2023-03-02T09:53:18.271Z,15.40
2023-03-02T09:55:51.658Z,10.30
2023-03-02T09:58:21.758Z,13.90
2023-03-02T10:00:51.129Z,15.80
2023-03-02T10:03:22.432Z,13.10
2023-03-02T10:05:54.942Z,18.30
2023-03-02T10:08:26.556Z,28.40
2023-03-02T10:11:01.981Z,24.30
2023-03-02T10:13:35.774Z,11.20
2023-03-02T10:16:15.935Z,13.10
2023-03-02T10:18:49.890Z,8.60
2023-03-02T10:21:33.720Z,12.40
2023-03-02T10:26:51.732Z,13.90
2023-03-02T10:29:38.838Z,10.00
2023-03-02T10:32:09.601Z,17.50
2023-03-02T10:34:38.588Z,45.70
2023-03-02T10:37:14.702Z,54.90
2023-03-02T10:39:43.575Z,16.60
2023-03-02T10:42:16.961Z,11.30
2023-03-02T10:45:07.838Z,8.10
2023-03-02T10:47:35.643Z,24.20
2023-03-02T10:50:03.510Z,133.30
2023-03-02T10:52:31.268Z,10.10
2023-03-02T10:55:12.582Z,10.70
2023-03-02T10:57:43.168Z,15.90
2023-03-02T11:00:20.884Z,7.30
2023-03-02T11:02:54.848Z,7.40
2023-03-02T11:05:29.206Z,9.60
2023-03-02T11:08:03.827Z,9.20
2023-03-02T11:10:38.014Z,13.70
2023-03-02T11:13:28.031Z,11.30
2023-03-02T11:16:01.474Z,31.50
2023-03-02T11:22:50.137Z,14.60
2023-03-02T11:26:26.826Z,10.20
2023-03-02T11:30:05.559Z,14.00
2023-03-02T11:33:39.911Z,27.90
2023-03-02T11:36:59.839Z,12.00
2023-03-02T11:40:30.576Z,21.80
2023-03-02T11:43:19.539Z,11.10
2023-03-02T11:46:21.589Z,13.70
2023-03-02T11:55:09.545Z,59.20
2023-03-02T12:01:44.623Z,10.90
2023-03-02T12:09:43.652Z,13.90
2023-03-02T12:13:28.838Z,18.10
2023-03-02T12:16:20.046Z,9.10
2023-03-02T12:21:18.974Z,11.30
2023-03-02T12:23:49.864Z,32.70
2023-03-02T12:26:20.747Z,13.30
2023-03-02T12:29:10.257Z,11.80
2023-03-02T12:31:48.445Z,12.40
2023-03-02T12:34:39.194Z,9.70
2023-03-02T12:37:23.521Z,19.30
2023-03-02T12:40:13.010Z,13.40
2023-03-02T12:43:12.651Z,15.50
2023-03-02T12:45:57.804Z,22.00
2023-03-02T12:48:31.841Z,12.00
2023-03-02T12:51:02.843Z,12.50
2023-03-02T12:53:30.795Z,9.00
2023-03-02T12:55:58.606Z,11.80
2023-03-02T12:58:29.199Z,11.10
2023-03-02T13:01:01.329Z,17.30
2023-03-02T13:03:31.192Z,11.80
2023-03-02T13:06:14.507Z,16.90
2023-03-02T13:08:48.439Z,11.10
2023-03-02T13:11:36.778Z,16.40
2023-03-02T13:14:22.704Z,17.70
2023-03-02T13:16:56.020Z,11.60
2023-03-02T13:19:25.699Z,14.90
2023-03-02T13:21:53.793Z,9.90
2023-03-02T13:24:53.501Z,10.90
2023-03-02T13:27:23.479Z,23.70
2023-03-02T13:29:52.934Z,12.50
2023-03-02T13:32:25.370Z,13.10
2023-03-02T13:37:46.433Z,32.70
2023-03-02T13:40:32.305Z,15.90
2023-03-02T13:43:00.079Z,13.70
2023-03-02T13:45:30.229Z,17.20
2023-03-02T13:48:15.224Z,26.20
2023-03-02T13:51:01.360Z,15.60
2023-03-02T13:53:31.666Z,18.80
2023-03-02T13:56:02.808Z,17.20
2023-03-02T13:58:38.225Z,12.20
2023-03-02T14:01:07.630Z,9.40
2023-03-02T14:03:35.399Z,15.10
2023-03-02T14:06:03.377Z,14.80
2023-03-02T14:08:31.186Z,9.10
2023-03-02T14:11:01.136Z,14.00
2023-03-02T14:13:47.227Z,15.40
2023-03-02T14:16:16.742Z,12.60
2023-03-02T14:18:47.160Z,24.00
2023-03-02T14:21:20.742Z,17.50
2023-03-02T14:26:33.575Z,15.30
2023-03-02T14:29:25.950Z,13.80
2023-03-02T14:31:55.509Z,10.90
2023-03-02T14:34:23.440Z,17.80
2023-03-02T14:36:54.469Z,14.30
2023-03-02T14:39:24.206Z,14.10
2023-03-02T14:41:54.506Z,14.00
2023-03-02T14:44:23.188Z,13.10
2023-03-02T14:46:51.420Z,13.90
2023-03-02T14:49:20.200Z,15.00
2023-03-02T14:52:02.961Z,13.10
2023-03-02T14:54:40.870Z,12.90
2023-03-02T14:57:25.846Z,13.50
2023-03-02T14:59:55.939Z,15.50
2023-03-02T15:02:26.833Z,10.00
2023-03-02T15:04:57.509Z,17.20
2023-03-02T15:07:27.599Z,11.00
2023-03-02T15:09:56.854Z,18.50
2023-03-02T15:12:25.081Z,14.30
2023-03-02T15:14:52.905Z,12.30
2023-03-02T15:17:20.679Z,13.50
2023-03-02T15:19:48.516Z,14.20
2023-03-02T15:22:16.664Z,13.10
2023-03-02T15:24:44.440Z,17.10
2023-03-02T15:27:12.232Z,13.70
2023-03-02T15:29:44.710Z,20.40
2023-03-02T15:32:13.571Z,20.80
2023-03-02T15:34:41.569Z,20.90
2023-03-02T15:37:11.353Z,15.40
2023-03-02T15:39:39.076Z,16.20
2023-03-02T15:42:07.072Z,16.60
2023-03-02T15:44:34.873Z,20.00
2023-03-02T15:47:02.798Z,16.40
2023-03-02T15:49:32.741Z,22.10
2023-03-02T15:52:00.967Z,15.30
2023-03-02T15:54:29.265Z,18.40
2023-03-02T15:56:57.090Z,20.60
2023-03-02T15:59:27.511Z,17.50
2023-03-02T16:01:59.371Z,14.60
2023-03-02T16:04:28.774Z,16.10
2023-03-02T16:06:56.922Z,19.60
2023-03-02T16:09:25.689Z,27.40
2023-03-02T16:11:53.419Z,15.40
2023-03-02T16:14:21.456Z,18.50
2023-03-02T16:16:49.416Z,16.00
2023-03-02T16:19:19.401Z,19.90
2023-03-02T16:21:48.010Z,22.50
2023-03-02T16:24:16.949Z,18.40
2023-03-02T16:26:45.362Z,18.50
2023-03-02T16:29:15.054Z,24.20
2023-03-02T16:31:46.542Z,21.70
2023-03-02T16:34:14.566Z,25.00
2023-03-02T16:36:42.435Z,26.20
2023-03-02T16:39:12.327Z,41.30
2023-03-02T16:41:42.433Z,48.00
2023-03-02T16:44:11.027Z,40.30
2023-03-02T16:46:43.446Z,44.50
2023-03-02T16:49:12.787Z,46.20
2023-03-02T16:51:41.471Z,41.80
2023-03-02T16:54:09.975Z,34.90
2023-03-02T16:56:37.808Z,26.00
2023-03-02T16:59:05.549Z,32.80
2023-03-02T17:01:33.337Z,59.40
2023-03-02T17:04:02.793Z,79.40
2023-03-02T17:06:32.009Z,62.50
2023-03-02T17:09:00.209Z,68.60
2023-03-02T17:11:28.265Z,60.20
2023-03-02T17:13:56.037Z,59.00
2023-03-02T17:16:24.838Z,46.90
2023-03-02T17:18:52.559Z,46.70
2023-03-02T17:21:20.625Z,47.80
2023-03-02T17:23:48.459Z,60.00
2023-03-02T17:26:17.252Z,64.60
2023-03-02T17:28:45.122Z,106.70
2023-03-02T17:31:13.003Z,126.60
2023-03-02T17:33:40.733Z,156.80
2023-03-02T17:36:11.790Z,151.00
2023-03-02T17:38:40.009Z,125.70
2023-03-02T17:41:12.989Z,112.00
2023-03-02T17:43:41.998Z,57.60
2023-03-02T17:46:16.157Z,94.20
2023-03-02T17:48:43.928Z,68.60
2023-03-02T17:51:14.746Z,87.00
2023-03-02T17:53:47.833Z,110.10
2023-03-02T17:56:21.937Z,93.50
2023-03-02T17:58:57.363Z,105.10
2023-03-02T18:01:25.773Z,106.90
2023-03-02T18:03:53.582Z,108.40
2023-03-02T18:06:21.916Z,90.30
2023-03-02T18:08:51.928Z,64.40
2023-03-02T18:11:22.228Z,78.60
2023-03-02T18:13:50.040Z,81.80
2023-03-02T18:16:17.829Z,79.50
2023-03-02T18:18:45.581Z,98.80
2023-03-02T18:21:13.284Z,102.20
2023-03-02T18:23:42.091Z,105.60
2023-03-02T18:26:09.877Z,107.30
2023-03-02T18:28:38.655Z,113.60
2023-03-02T18:31:07.237Z,130.80
2023-03-02T18:33:35.143Z,124.20
2023-03-02T18:36:05.461Z,103.50
2023-03-02T18:38:34.818Z,118.90
2023-03-02T18:41:06.295Z,103.00
2023-03-02T18:43:38.824Z,120.40
2023-03-02T18:46:08.543Z,136.70
2023-03-02T18:48:37.425Z,126.70
2023-03-02T18:51:05.202Z,128.50
2023-03-02T18:53:33.978Z,113.20
2023-03-02T18:56:02.098Z,115.40
2023-03-02T18:58:33.926Z,123.40
2023-03-02T19:01:02.534Z,132.90
2023-03-02T19:03:30.882Z,108.10
2023-03-02T19:05:58.936Z,115.90
2023-03-02T19:08:27.012Z,104.60
2023-03-02T19:10:55.490Z,129.30
2023-03-02T19:13:24.011Z,126.70
2023-03-02T19:15:54.822Z,112.30
2023-03-02T19:18:24.831Z,102.80
2023-03-02T19:20:54.409Z,119.00
2023-03-02T19:23:22.154Z,116.40
2023-03-02T19:25:50.814Z,93.70
2023-03-02T19:28:19.079Z,76.60
2023-03-02T19:30:47.240Z,66.10
2023-03-02T19:33:15.274Z,70.50
2023-03-02T19:35:43.209Z,65.40
2023-03-02T19:38:11.598Z,71.00
2023-03-02T19:40:39.543Z,72.50
2023-03-02T19:43:07.484Z,92.90
2023-03-02T19:45:36.276Z,77.90
2023-03-02T19:48:05.705Z,91.00
2023-03-02T19:50:33.534Z,87.70
2023-03-02T19:53:01.282Z,86.30
2023-03-02T19:55:29.126Z,102.80
2023-03-02T19:58:01.025Z,110.40
2023-03-02T20:00:31.498Z,127.40
2023-03-02T20:02:59.922Z,195.60
2023-03-02T20:05:27.958Z,152.50
2023-03-02T20:07:55.833Z,154.20
2023-03-02T20:10:30.077Z,147.40
2023-03-02T20:12:59.606Z,146.50
2023-03-02T20:15:29.871Z,351.70
2023-03-02T20:17:59.446Z,125.90
2023-03-02T20:20:27.218Z,127.00
2023-03-02T20:22:55.025Z,157.50
2023-03-02T20:25:23.424Z,151.70
2023-03-02T20:27:51.828Z,132.90
2023-03-02T20:30:27.662Z,125.50
2023-03-02T20:32:56.512Z,127.80
2023-03-02T20:35:25.002Z,143.60
2023-03-02T20:37:54.573Z,173.60
2023-03-02T20:40:23.557Z,127.50
2023-03-02T20:42:51.532Z,143.60
2023-03-02T20:45:19.557Z,226.40
2023-03-02T20:47:47.523Z,194.50
2023-03-02T20:50:20.642Z,137.10
2023-03-02T20:52:48.558Z,112.70
2023-03-02T20:55:16.599Z,106.60
2023-03-02T20:57:44.708Z,176.20
2023-03-02T21:00:20.809Z,119.50
2023-03-02T21:02:49.497Z,152.90
2023-03-02T21:05:19.253Z,169.10
2023-03-02T21:07:48.009Z,254.10
2023-03-02T21:10:20.078Z,437.20
2023-03-02T21:12:48.966Z,283.80
2023-03-02T21:15:19.992Z,239.30
2023-03-02T21:17:47.731Z,198.30
2023-03-02T21:20:18.334Z,250.70
2023-03-02T21:22:46.356Z,174.40
2023-03-02T21:25:14.614Z,243.10
2023-03-02T21:27:44.184Z,213.10
2023-03-02T21:30:22.338Z,165.60
2023-03-02T21:32:50.581Z,127.50
2023-03-02T21:35:20.449Z,127.40
2023-03-02T21:37:51.193Z,193.30
2023-03-02T21:40:23.738Z,140.40
2023-03-02T21:42:52.131Z,144.80
2023-03-02T21:45:20.828Z,104.00
2023-03-02T21:47:49.997Z,147.40
2023-03-02T21:50:22.418Z,168.10
2023-03-02T21:52:50.569Z,138.50
2023-03-02T21:55:18.735Z,181.30
2023-03-02T21:57:46.457Z,243.80
2023-03-02T22:00:22.250Z,314.50
2023-03-02T22:02:50.934Z,156.50
2023-03-02T22:05:19.536Z,126.00
2023-03-02T22:07:47.804Z,150.00
2023-03-02T22:10:52.794Z,120.70
2023-03-02T22:13:32.745Z,131.90
2023-03-02T22:16:25.368Z,107.10
2023-03-02T22:18:57.065Z,94.40
2023-03-02T22:21:33.275Z,104.70
2023-03-02T22:24:25.907Z,102.40
2023-03-02T22:27:25.893Z,99.80
2023-03-02T22:29:57.781Z,92.90
2023-03-02T22:32:31.092Z,101.20
2023-03-02T22:37:34.565Z,80.30
2023-03-02T22:40:13.094Z,91.10
2023-03-02T22:42:40.791Z,98.50
2023-03-02T22:45:14.748Z,90.20
2023-03-02T22:47:43.777Z,92.30
2023-03-02T22:50:25.919Z,98.50
2023-03-02T22:52:56.306Z,94.10
2023-03-02T22:55:30.878Z,99.80
2023-03-02T22:57:58.647Z,102.90
2023-03-02T23:00:35.071Z,105.10
2023-03-02T23:03:17.700Z,106.50
2023-03-02T23:05:49.127Z,90.40
2023-03-02T23:08:22.374Z,91.40
2023-03-02T23:10:52.647Z,95.10
2023-03-02T23:13:26.943Z,104.60
2023-03-02T23:15:55.261Z,84.60
2023-03-02T23:18:24.374Z,97.10
2023-03-02T23:20:52.668Z,87.50
2023-03-02T23:23:22.652Z,85.10
2023-03-02T23:25:50.663Z,86.80
2023-03-02T23:28:18.389Z,84.80
2023-03-02T23:30:47.539Z,94.80
2023-03-02T23:33:15.517Z,100.00
2023-03-02T23:35:43.302Z,98.00
2023-03-02T23:38:11.022Z,96.80
2023-03-02T23:40:38.739Z,104.20
2023-03-02T23:43:06.449Z,84.80
2023-03-02T23:45:34.487Z,103.20
2023-03-02T23:48:02.275Z,87.60
2023-03-02T23:50:29.992Z,96.60
2023-03-02T23:52:57.710Z,94.20
2023-03-02T23:55:25.426Z,100.10
2023-03-02T23:57:53.196Z,110.40
